createdAt,value
2022-11-27T00:08:02.691Z,12.50
2022-11-27T00:18:02.569Z,4.20
2022-11-27T00:28:02.984Z,7.10
2022-11-27T00:38:03.095Z,15.90
2022-11-27T00:48:03.256Z,16.20
2022-11-27T00:58:03.294Z,29.00
2022-11-27T01:08:03.605Z,16.50
2022-11-27T01:18:03.630Z,4.00
2022-11-27T01:28:03.986Z,3.40
2022-11-27T01:38:04.024Z,2.30
2022-11-27T01:48:04.453Z,1.20
2022-11-27T01:58:04.480Z,1.10
2022-11-27T02:08:04.928Z,3.20
2022-11-27T02:18:04.986Z,1.30
2022-11-27T02:28:05.300Z,1.30
2022-11-27T02:38:05.330Z,3.70
2022-11-27T02:48:05.675Z,7.00
2022-11-27T02:58:05.696Z,12.50
2022-11-27T03:08:06.040Z,11.00
2022-11-27T03:18:06.062Z,10.00
2022-11-27T03:28:06.309Z,10.90
2022-11-27T03:38:06.321Z,26.30
2022-11-27T03:48:06.679Z,32.80
2022-11-27T03:58:06.698Z,29.60
2022-11-27T04:08:07.044Z,17.20
2022-11-27T04:18:07.069Z,14.80
2022-11-27T04:28:07.417Z,15.10
2022-11-27T04:38:07.449Z,13.20
2022-11-27T04:48:07.796Z,11.90
2022-11-27T04:58:07.820Z,9.80
2022-11-27T05:08:08.170Z,9.00
2022-11-27T05:18:08.195Z,11.20
2022-11-27T05:28:08.683Z,14.30
2022-11-27T05:38:08.499Z,39.80
2022-11-27T05:48:08.795Z,29.00
2022-11-27T05:58:08.814Z,23.00
2022-11-27T06:08:09.164Z,31.30
2022-11-27T06:18:09.197Z,19.90
2022-11-27T06:28:09.538Z,14.60
2022-11-27T06:38:09.570Z,12.00
2022-11-27T06:48:09.908Z,13.10
2022-11-27T06:58:09.905Z,14.00
2022-11-27T07:08:10.442Z,13.40
2022-11-27T07:18:11.221Z,9.20
2022-11-27T07:28:13.616Z,9.40
2022-11-27T07:38:11.611Z,9.50
2022-11-27T07:48:10.842Z,31.10
2022-11-27T07:58:11.072Z,27.80
2022-11-27T08:08:11.406Z,24.90
2022-11-27T08:18:11.425Z,20.00
2022-11-27T08:28:11.753Z,16.00
2022-11-27T08:38:11.780Z,29.10
2022-11-27T08:48:12.025Z,24.20
2022-11-27T08:58:12.364Z,30.60
2022-11-27T09:08:12.505Z,10.90
2022-11-27T09:18:12.512Z,11.40
2022-11-27T09:28:12.758Z,8.10
2022-11-27T09:38:12.985Z,6.40
2022-11-27T09:48:13.233Z,6.00
2022-11-27T09:58:13.453Z,8.40
2022-11-27T10:08:13.784Z,10.80
2022-11-27T10:18:13.904Z,7.50
2022-11-27T10:28:14.180Z,9.30
2022-11-27T10:38:14.207Z,8.90
2022-11-27T10:48:14.433Z,11.50
2022-11-27T10:58:14.659Z,8.40
2022-11-27T11:08:15.949Z,7.40
2022-11-27T11:18:14.968Z,6.10
2022-11-27T11:28:15.197Z,6.20
2022-11-27T11:38:15.520Z,5.20
2022-11-27T11:48:15.664Z,4.20
2022-11-27T11:58:15.711Z,10.50
2022-11-27T12:08:15.825Z,7.60
2022-11-27T12:18:15.896Z,12.10
2022-11-27T12:28:16.001Z,17.20
2022-11-27T12:38:16.007Z,13.50
2022-11-27T12:48:16.257Z,8.10
2022-11-27T12:58:16.566Z,5.40
2022-11-27T13:08:16.625Z,7.30
2022-11-27T13:18:17.012Z,10.90
2022-11-27T13:28:17.567Z,7.50
2022-11-27T13:38:17.181Z,8.50
2022-11-27T13:48:17.668Z,9.80
2022-11-27T13:58:17.569Z,6.40
2022-11-27T14:08:19.892Z,8.20
2022-11-27T14:18:17.929Z,7.50
2022-11-27T14:28:18.224Z,6.20
2022-11-27T14:38:18.256Z,12.40
2022-11-27T14:48:18.511Z,36.40
2022-11-27T14:58:18.727Z,14.90
2022-11-27T15:08:19.057Z,15.70
2022-11-27T15:18:19.111Z,44.70
2022-11-27T15:28:19.671Z,37.50
2022-11-27T15:38:19.610Z,14.30
2022-11-27T15:48:19.710Z,19.20
2022-11-27T15:58:19.847Z,33.30
2022-11-27T16:08:19.974Z,26.70
2022-11-27T16:18:20.001Z,22.40
2022-11-27T16:28:20.411Z,26.50
2022-11-27T16:38:20.608Z,22.40
2022-11-27T16:48:21.959Z,28.20
2022-11-27T16:58:21.133Z,24.40
2022-11-27T17:08:21.070Z,27.70
2022-11-27T17:18:21.118Z,28.80
2022-11-27T17:28:21.636Z,24.90
2022-11-27T17:38:22.601Z,27.90
2022-11-27T17:48:22.063Z,45.40
2022-11-27T17:58:22.222Z,42.00
2022-11-27T18:08:22.407Z,32.30
2022-11-27T18:18:22.302Z,24.80
2022-11-27T18:28:22.805Z,27.50
2022-11-27T18:38:22.957Z,29.10
2022-11-27T18:48:25.123Z,29.40
2022-11-27T18:58:23.034Z,26.30
2022-11-27T19:08:23.516Z,31.00
2022-11-27T19:18:24.363Z,31.30
2022-11-27T19:28:23.850Z,25.80
2022-11-27T19:38:23.802Z,25.20
2022-11-27T19:48:24.127Z,26.90
2022-11-27T19:58:23.848Z,26.40
2022-11-27T20:08:24.586Z,28.70
2022-11-27T20:18:24.548Z,25.30
2022-11-27T20:28:24.728Z,23.70
2022-11-27T20:38:24.889Z,25.90
2022-11-27T20:48:32.230Z,32.50
2022-11-27T20:58:25.833Z,33.20
2022-11-27T21:08:25.952Z,29.90
2022-11-27T21:18:25.436Z,29.50
2022-11-27T21:28:25.484Z,33.30
2022-11-27T21:38:25.511Z,28.80
2022-11-27T21:48:25.860Z,30.40
2022-11-27T21:58:25.880Z,33.60
